aviador You're here:

SAME Decoded Metar

MENDOZA in ARGENTINA
Report Time2017-11-25 00:00:00
UTC Time2017-11-25 00:12:52
Flight Rules vfr VFR
Wind140° at 03 kt
W.Decomp.*RWY 18: 2.3 kt HW 2 kt LCW
W.Rank140° ranks 2
Current wind is below 140° avg. (6.0)
Visibility9999 m
Phenomena:N/A
Clouds:N/A
Expected CloudBase > 8,400 ft AGL from Temp-Dew spread
CeilingNone
Temp23°C (ISA +13)
Dew Point02°C (25% RH)
AAT20.2°C
QNH1014 hPa
Density Alt3,832 ft
Elevation2,310 ft
Report Wrong Elevation
Raw Report
SAME 250000Z 14003KT CAVOK 23/02 Q1014=

Extra information for SAME:More info

Metar Taf Metar & Taf Last 4 Metars F.Rules Stats Wind Profile Meteogram Temp Stats Airport Information Weather charts Add Link Nearby VenuesMetar ALERT Operation Metar Decoded Social comments